Time;durP1;ratioP1;P1;durP2;ratioP2;P2;SDS_P1;SDS_P2;PMS_P1;PMS_P2;Temp;Humidity;BMP_temperature;BMP_pressure;BME280_temperature;BME280_humidity;BME280_pressure;Samples;Min_cycle;Max_cycle;Signal;HPM_P1;HPM_P2
2023/06/18 00:02:22;;;;;;;12.45;8.05;;;;;;;19.52;48.35;100131.84;4945209;28;20043;-66
2023/06/18 00:04:48;;;;;;;12.60;8.07;;;;;;;19.38;49.59;100129.50;4945255;28;20529;-66
2023/06/18 00:07:15;;;;;;;11.55;8.73;;;;;;;19.33;50.16;100135.28;4945764;28;20923;-66
2023/06/18 00:09:42;;;;;;;12.60;9.13;;;;;;;19.30;49.95;100135.53;4945634;28;20050;-67
2023/06/18 00:12:10;;;;;;;11.50;9.25;;;;;;;19.16;50.93;100136.75;4931010;29;20043;-67
2023/06/18 00:14:37;;;;;;;12.18;9.25;;;;;;;19.09;51.04;100137.41;4948025;28;20655;-68
2023/06/18 00:17:05;;;;;;;11.85;9.18;;;;;;;19.02;50.98;100142.47;4923727;29;20520;-64
2023/06/18 00:19:31;;;;;;;10.40;9.02;;;;;;;18.98;50.80;100137.47;4939724;28;21440;-66
2023/06/18 00:21:59;;;;;;;11.77;8.65;;;;;;;19.00;50.94;100143.56;4949794;28;20457;-66
2023/06/18 00:24:26;;;;;;;11.73;8.57;;;;;;;19.00;50.50;100132.84;4949272;28;20047;-66
2023/06/18 00:26:53;;;;;;;11.77;8.82;;;;;;;19.00;50.75;100138.19;4929498;28;20075;-66
2023/06/18 00:29:20;;;;;;;10.45;8.65;;;;;;;18.96;51.00;100129.56;4931432;29;20059;-65
2023/06/18 00:31:48;;;;;;;12.27;8.65;;;;;;;19.02;50.60;100131.72;4932424;28;20046;-65
2023/06/18 00:34:17;;;;;;;12.27;8.80;;;;;;;19.01;50.89;100130.03;4930705;28;20051;-65
2023/06/18 00:36:50;;;;;;;13.95;8.57;;;;;;;18.95;51.30;100122.50;4946860;28;20069;-65
2023/06/18 00:39:16;;;;;;;10.25;8.63;;;;;;;18.88;51.27;100126.69;4932459;28;20051;-66
2023/06/18 00:41:46;;;;;;;12.90;9.40;;;;;;;18.88;51.77;100126.69;4947023;28;20760;-66
2023/06/18 00:44:12;;;;;;;10.32;8.30;;;;;;;18.83;52.21;100120.88;4914330;28;20134;-65
2023/06/18 00:46:41;;;;;;;13.90;9.23;;;;;;;18.86;51.64;100115.25;4910045;28;20059;-65
2023/06/18 00:49:08;;;;;;;13.27;10.00;;;;;;;18.84;51.50;100131.47;4952989;28;20047;-66
2023/06/18 00:51:35;;;;;;;13.13;10.55;;;;;;;18.73;51.38;100134.19;4932994;29;20050;-66
2023/06/18 00:54:02;;;;;;;13.35;9.85;;;;;;;18.68;52.23;100130.22;4951342;28;20485;-66
2023/06/18 00:56:30;;;;;;;13.35;9.90;;;;;;;18.61;52.72;100124.50;4945056;28;20043;-67
2023/06/18 00:58:59;;;;;;;13.13;9.50;;;;;;;18.49;53.67;100126.38;4932725;28;20059;-67
2023/06/18 01:01:26;;;;;;;13.40;9.30;;;;;;;18.35;54.34;100117.78;4946832;28;20062;-67
2023/06/18 01:03:59;;;;;;;10.90;9.27;;;;;;;18.23;55.40;100125.03;4911493;29;20053;-65
2023/06/18 01:06:28;;;;;;;11.30;9.13;;;;;;;18.15;56.31;100117.59;4927850;28;20043;-66
2023/06/18 01:08:55;;;;;;;14.85;10.00;;;;;;;18.09;56.70;100122.63;4931840;28;20051;-66
2023/06/18 01:11:22;;;;;;;14.60;9.95;;;;;;;18.03;57.29;100131.16;4935094;28;20043;-67
2023/06/18 01:13:50;;;;;;;14.20;11.05;;;;;;;17.94;58.12;100124.75;4945143;28;20046;-65
2023/06/18 01:16:22;;;;;;;13.07;9.40;;;;;;;17.86;58.80;100130.72;4926525;28;20530;-66
2023/06/18 01:18:51;;;;;;;15.45;10.10;;;;;;;17.81;59.48;100126.69;4949047;28;20537;-66
2023/06/18 01:21:23;;;;;;;13.02;10.00;;;;;;;17.78;59.89;100127.81;4943173;28;20043;-66
2023/06/18 01:24:01;;;;;;;14.57;9.95;;;;;;;17.77;60.27;100130.63;4925228;28;20075;-66
2023/06/18 01:26:31;;;;;;;12.77;9.20;;;;;;;17.79;60.05;100124.16;4942357;28;20105;-66
2023/06/18 01:28:58;;;;;;;11.63;8.98;;;;;;;17.85;59.60;100129.00;4942861;28;20055;-66
2023/06/18 01:31:26;;;;;;;13.18;8.68;;;;;;;17.84;59.33;100127.31;4931753;29;20053;-66
2023/06/18 01:33:55;;;;;;;10.75;8.57;;;;;;;17.82;59.63;100115.88;4947159;28;20051;-66
2023/06/18 01:37:03;;;;;;;12.05;7.95;;;;;;;17.79;59.68;100117.94;4942572;28;20051;-66
2023/06/18 01:39:44;;;;;;;9.98;7.75;;;;;;;17.70;59.96;100108.84;4915841;29;20134;-67
2023/06/18 01:42:16;;;;;;;11.48;7.90;;;;;;;17.69;60.62;100115.16;4948066;28;20529;-66
2023/06/18 01:44:46;;;;;;;9.95;7.68;;;;;;;17.70;60.60;100111.50;4931755;28;20051;-66
2023/06/18 01:47:15;;;;;;;11.68;7.95;;;;;;;17.67;61.25;100119.78;4943926;28;20440;-66
2023/06/18 01:49:44;;;;;;;11.27;7.80;;;;;;;17.66;61.88;100127.94;4932329;28;20040;-66
2023/06/18 01:52:15;;;;;;;10.25;8.43;;;;;;;17.67;62.24;100118.94;4932232;28;20476;-66
2023/06/18 01:54:49;;;;;;;9.48;8.02;;;;;;;17.60;61.93;100118.56;4950819;28;20051;-66
2023/06/18 01:57:16;;;;;;;12.52;8.10;;;;;;;17.58;62.44;100120.50;4947063;28;20580;-66
2023/06/18 01:59:43;;;;;;;9.55;7.80;;;;;;;17.54;63.02;100119.03;4950257;28;20039;-66
2023/06/18 02:02:12;;;;;;;10.27;8.48;;;;;;;17.46;63.45;100111.63;4946820;28;20051;-65
2023/06/18 02:04:43;;;;;;;10.70;8.57;;;;;;;17.41;63.65;100118.31;4944211;28;20055;-66
2023/06/18 02:07:11;;;;;;;11.65;8.45;;;;;;;17.34;64.64;100117.09;4921937;28;20059;-66
2023/06/18 02:09:38;;;;;;;9.63;8.30;;;;;;;17.29;65.45;100122.84;4946499;28;20074;-66
2023/06/18 02:12:06;;;;;;;10.05;8.27;;;;;;;17.23;65.81;100120.63;4930117;28;20055;-66
2023/06/18 02:14:32;;;;;;;9.32;8.25;;;;;;;17.23;66.70;100111.75;4930589;29;20055;-65
2023/06/18 02:17:01;;;;;;;10.50;8.35;;;;;;;17.27;66.21;100127.44;4927362;28;20051;-66
2023/06/18 02:19:29;;;;;;;10.02;8.18;;;;;;;17.23;66.79;100125.13;4948122;28;20068;-66
2023/06/18 02:21:56;;;;;;;9.73;7.80;;;;;;;17.17;66.97;100123.78;4920255;29;20075;-66
2023/06/18 02:24:23;;;;;;;10.27;8.75;;;;;;;17.11;67.61;100125.13;4934742;29;20062;-65
2023/06/18 02:26:49;;;;;;;11.50;9.00;;;;;;;17.07;68.27;100118.31;4944450;28;20047;-66
2023/06/18 02:29:16;;;;;;;12.18;8.63;;;;;;;16.97;68.80;100111.13;4950529;28;20051;-66
2023/06/18 02:31:42;;;;;;;11.45;8.35;;;;;;;16.99;69.19;100126.09;4944591;28;20146;-67
2023/06/18 02:34:09;;;;;;;10.82;8.13;;;;;;;16.95;69.65;100119.28;4952068;28;20548;-66
2023/06/18 02:36:38;;;;;;;9.93;8.18;;;;;;;17.03;69.63;100115.97;4943811;28;20057;-66
2023/06/18 02:39:05;;;;;;;13.73;9.05;;;;;;;17.09;69.49;100107.50;4929548;28;20039;-65
2023/06/18 02:41:33;;;;;;;9.90;7.93;;;;;;;17.12;69.10;100110.78;4944878;28;20070;-66
2023/06/18 02:43:59;;;;;;;10.82;8.05;;;;;;;17.14;69.38;100114.19;4915442;29;20058;-65
2023/06/18 02:46:29;;;;;;;12.27;8.40;;;;;;;17.16;68.99;100117.56;4925127;28;20157;-67
2023/06/18 02:48:55;;;;;;;11.57;8.90;;;;;;;17.07;69.77;100114.78;4949221;28;20095;-65
2023/06/18 02:51:22;;;;;;;10.07;7.75;;;;;;;16.94;70.33;100125.59;4931398;29;20047;-66
2023/06/18 02:53:49;;;;;;;9.77;7.75;;;;;;;16.82;71.46;100123.88;4945515;28;20404;-65
2023/06/18 02:56:17;;;;;;;10.00;8.20;;;;;;;16.70;72.25;100112.28;4942712;28;20058;-67
2023/06/18 02:58:43;;;;;;;10.73;8.20;;;;;;;16.63;73.27;100118.22;4930144;29;20082;-65
2023/06/18 03:01:12;;;;;;;11.13;8.43;;;;;;;16.54;74.00;100116.19;4946871;28;20134;-65
2023/06/18 03:03:43;;;;;;;11.07;8.23;;;;;;;16.45;74.71;100110.59;4950350;28;20142;-64
2023/06/18 03:06:09;;;;;;;12.07;8.32;;;;;;;16.45;74.90;100120.44;4948542;28;20065;-65
2023/06/18 03:08:36;;;;;;;9.35;8.27;;;;;;;16.46;75.91;100114.97;4945421;28;20134;-64
2023/06/18 03:11:02;;;;;;;9.13;7.88;;;;;;;16.51;75.09;100116.44;4950161;28;20054;-67
2023/06/18 03:13:30;;;;;;;12.00;8.85;;;;;;;16.58;74.64;100117.69;4941955;28;20043;-67
2023/06/18 03:15:57;;;;;;;10.07;8.50;;;;;;;16.57;74.81;100111.47;4951496;28;20071;-66
2023/06/18 03:18:23;;;;;;;11.65;8.52;;;;;;;16.52;75.08;100120.84;4949538;28;20047;-66
2023/06/18 03:20:50;;;;;;;10.00;8.43;;;;;;;16.45;75.30;100118.63;4950365;28;20518;-67
2023/06/18 03:23:17;;;;;;;9.57;8.13;;;;;;;16.40;75.81;100119.91;4920003;28;20047;-66
2023/06/18 03:25:44;;;;;;;12.65;8.68;;;;;;;16.43;76.46;100122.38;4947469;28;20047;-68
2023/06/18 03:28:10;;;;;;;10.57;8.90;;;;;;;16.53;77.00;100123.34;4947171;28;20062;-67
2023/06/18 03:30:38;;;;;;;11.15;8.85;;;;;;;16.64;76.00;100127.94;4949190;28;20061;-65
2023/06/18 03:33:06;;;;;;;11.48;8.77;;;;;;;16.61;75.18;100129.00;4913627;28;20062;-66
2023/06/18 03:35:33;;;;;;;12.35;8.43;;;;;;;16.53;76.34;100125.22;4930409;28;20047;-67
2023/06/18 03:38:00;;;;;;;18.50;8.77;;;;;;;16.47;76.57;100139.88;4929724;28;20054;-66
2023/06/18 03:40:27;;;;;;;10.38;8.80;;;;;;;16.49;77.11;100128.13;4945415;28;20047;-66
2023/06/18 03:42:54;;;;;;;9.98;8.40;;;;;;;16.58;76.56;100131.03;4926823;29;20111;-66
2023/06/18 03:45:21;;;;;;;11.38;8.30;;;;;;;16.64;76.00;100133.28;4931903;28;20721;-67
2023/06/18 03:47:47;;;;;;;11.50;8.55;;;;;;;16.62;76.14;100135.19;4924597;29;20051;-66
2023/06/18 03:50:14;;;;;;;11.23;8.05;;;;;;;16.60;76.84;100129.97;4943444;28;20071;-66
2023/06/18 03:52:41;;;;;;;11.23;7.82;;;;;;;16.68;76.83;100132.09;4928512;28;20134;-67
2023/06/18 03:55:08;;;;;;;9.75;8.25;;;;;;;16.75;77.05;100136.84;4932868;29;20134;-66
2023/06/18 03:57:35;;;;;;;10.95;7.82;;;;;;;16.76;76.95;100135.03;4920325;29;20586;-66
2023/06/18 04:00:04;;;;;;;10.85;8.15;;;;;;;16.69;76.82;100134.63;4923031;28;20047;-66
2023/06/18 04:02:31;;;;;;;11.90;8.40;;;;;;;16.63;76.93;100128.91;4943684;28;20058;-66
2023/06/18 04:04:58;;;;;;;10.00;8.15;;;;;;;16.63;77.56;100129.75;4927431;28;20078;-65
2023/06/18 04:07:27;;;;;;;16.02;7.88;;;;;;;16.63;77.51;100131.59;4942860;28;20106;-65
2023/06/18 04:09:55;;;;;;;10.05;8.13;;;;;;;16.56;77.30;100130.31;4946542;28;20147;-66
2023/06/18 04:12:21;;;;;;;9.93;7.65;;;;;;;16.57;77.54;100140.03;4949865;28;20051;-66
2023/06/18 04:14:48;;;;;;;10.18;8.18;;;;;;;16.59;77.67;100141.63;4951716;28;20053;-65
2023/06/18 04:17:15;;;;;;;9.48;8.13;;;;;;;16.59;79.22;100148.78;4945007;28;20074;-65
2023/06/18 04:19:41;;;;;;;10.07;8.25;;;;;;;16.63;79.88;100153.81;4930742;29;20039;-65
2023/06/18 04:22:10;;;;;;;9.32;8.30;;;;;;;16.71;78.66;100147.88;4945883;28;20107;-66
2023/06/18 04:24:36;;;;;;;9.05;7.80;;;;;;;16.77;78.13;100139.41;4946029;28;20049;-66
2023/06/18 04:27:03;;;;;;;8.95;7.78;;;;;;;16.86;78.18;100148.53;4946443;28;20669;-67
2023/06/18 04:29:30;;;;;;;9.90;8.27;;;;;;;16.87;78.23;100143.06;4943201;28;20043;-67
2023/06/18 04:31:57;;;;;;;9.50;7.95;;;;;;;16.83;77.05;100144.28;4943766;28;20050;-65
2023/06/18 04:34:23;;;;;;;14.02;8.52;;;;;;;16.86;76.05;100143.19;4947667;28;20134;-65
2023/06/18 04:36:50;;;;;;;9.02;7.93;;;;;;;16.90;75.72;100150.00;4926574;29;20079;-65
2023/06/18 04:39:18;;;;;;;10.93;8.60;;;;;;;16.91;74.32;100141.00;4928191;29;20130;-65
2023/06/18 04:41:47;;;;;;;8.88;7.78;;;;;;;17.01;75.29;100142.00;4936411;28;20524;-66
2023/06/18 04:44:15;;;;;;;10.57;8.45;;;;;;;17.06;75.07;100139.81;4931852;28;20174;-66
2023/06/18 04:46:42;;;;;;;10.50;8.10;;;;;;;17.12;74.13;100140.22;4944467;28;20134;-66
2023/06/18 04:49:08;;;;;;;12.27;8.50;;;;;;;17.17;73.55;100143.34;4935866;28;20071;-66
2023/06/18 04:51:35;;;;;;;11.77;7.90;;;;;;;17.23;75.55;100147.38;4926789;28;20421;-67
2023/06/18 04:54:03;;;;;;;11.35;7.82;;;;;;;17.23;73.62;100136.69;4944189;28;20514;-68
2023/06/18 04:56:30;;;;;;;11.43;8.85;;;;;;;17.32;72.83;100151.16;4925951;28;20058;-65
2023/06/18 04:58:57;;;;;;;8.93;8.02;;;;;;;17.38;73.26;100148.00;4923852;28;20035;-67
2023/06/18 05:01:24;;;;;;;9.73;8.18;;;;;;;17.42;71.99;100149.47;4944368;28;20040;-66
2023/06/18 05:03:50;;;;;;;11.00;7.90;;;;;;;17.46;71.54;100151.78;4945577;28;20483;-65
2023/06/18 05:06:17;;;;;;;9.85;8.48;;;;;;;17.62;73.25;100164.81;4930748;28;20560;-66
2023/06/18 05:08:46;;;;;;;10.55;8.20;;;;;;;17.64;73.33;100146.81;4943837;28;20517;-66
2023/06/18 05:11:15;;;;;;;10.52;7.93;;;;;;;17.67;73.38;100146.56;4930497;28;20051;-66
2023/06/18 05:13:42;;;;;;;11.93;8.48;;;;;;;17.68;73.87;100142.91;4951299;28;20109;-66
2023/06/18 05:16:09;;;;;;;11.88;8.65;;;;;;;17.78;74.41;100153.75;4947961;28;20134;-66
2023/06/18 05:18:39;;;;;;;9.63;8.18;;;;;;;17.92;71.96;100149.97;4948011;28;20074;-66
2023/06/18 05:21:05;;;;;;;13.53;8.43;;;;;;;18.04;70.75;100147.13;4929483;29;20506;-66
2023/06/18 05:23:32;;;;;;;10.98;7.50;;;;;;;18.11;70.77;100137.59;4945920;28;20099;-66
2023/06/18 05:26:00;;;;;;;11.02;8.27;;;;;;;18.31;71.41;100145.81;4949432;28;20047;-66
2023/06/18 05:28:28;;;;;;;10.13;8.00;;;;;;;18.43;68.51;100148.31;4941576;28;20513;-67
2023/06/18 05:30:54;;;;;;;8.95;8.05;;;;;;;18.53;67.06;100145.75;4929222;29;20055;-66
2023/06/18 05:33:22;;;;;;;10.02;8.10;;;;;;;18.60;63.77;100151.44;4949668;28;20054;-66
2023/06/18 05:35:49;;;;;;;8.93;7.78;;;;;;;18.59;64.66;100142.56;4928941;29;20106;-67
2023/06/18 05:38:15;;;;;;;8.77;7.80;;;;;;;18.63;63.35;100151.19;4922948;29;20050;-66
2023/06/18 05:40:42;;;;;;;10.20;8.45;;;;;;;18.67;63.45;100152.66;4909467;29;20134;-66
2023/06/18 05:43:08;;;;;;;8.48;7.57;;;;;;;18.69;63.46;100151.56;4930680;29;20064;-66
2023/06/18 05:45:37;;;;;;;13.80;8.48;;;;;;;18.78;62.88;100149.91;4927437;29;20552;-66
2023/06/18 05:48:07;;;;;;;11.13;7.80;;;;;;;18.87;62.28;100157.19;4922801;29;20111;-67
2023/06/18 05:50:34;;;;;;;9.75;7.53;;;;;;;18.96;63.41;100148.34;4928232;29;20060;-66
2023/06/18 05:53:01;;;;;;;10.63;7.80;;;;;;;19.12;62.17;100162.16;4912047;29;20044;-68
2023/06/18 05:55:28;;;;;;;9.32;7.38;;;;;;;19.24;63.54;100155.72;4910504;29;20530;-67
2023/06/18 05:57:54;;;;;;;9.98;8.02;;;;;;;19.34;61.40;100146.88;4908236;29;20920;-65
2023/06/18 06:00:21;;;;;;;8.93;7.88;;;;;;;19.48;60.47;100143.81;4923972;29;20055;-65
2023/06/18 06:02:50;;;;;;;10.00;7.53;;;;;;;19.62;60.51;100156.91;4929603;29;20058;-65
2023/06/18 06:05:16;;;;;;;11.07;8.30;;;;;;;19.78;60.46;100159.09;4928033;29;20667;-65
2023/06/18 06:07:43;;;;;;;12.60;8.65;;;;;;;19.80;60.48;100162.50;4924180;29;20055;-66
2023/06/18 06:10:14;;;;;;;13.07;8.25;;;;;;;19.88;60.77;100163.50;4908772;29;20055;-67
2023/06/18 06:12:40;;;;;;;;;;;;;;;19.93;59.83;100165.78;4929493;29;20047;-67
2023/06/18 06:15:09;;;;;;;14.38;8.52;;;;;;;20.03;58.84;100171.19;4929761;29;19928;-65
2023/06/18 06:17:37;;;;;;;9.05;7.72;;;;;;;20.17;58.66;100176.16;4924397;29;20610;-67
2023/06/18 06:20:04;;;;;;;9.48;8.48;;;;;;;20.44;56.83;100173.72;4927599;29;20043;-66
2023/06/18 06:22:31;;;;;;;13.40;8.88;;;;;;;20.73;55.09;100170.16;4932669;29;20578;-67
2023/06/18 06:24:58;;;;;;;10.95;8.75;;;;;;;20.95;54.40;100176.09;4929334;29;20112;-65
2023/06/18 06:27:25;;;;;;;9.85;7.82;;;;;;;21.27;55.39;100169.53;4928493;29;20052;-67
2023/06/18 06:29:52;;;;;;;8.60;7.75;;;;;;;21.59;53.61;100163.75;4923410;29;20040;-67
2023/06/18 06:32:19;;;;;;;9.48;8.30;;;;;;;21.94;53.67;100169.28;4909389;29;20158;-66
2023/06/18 06:34:47;;;;;;;11.43;7.80;;;;;;;22.08;53.54;100161.69;4938879;28;20044;-66
2023/06/18 06:37:14;;;;;;;11.07;8.27;;;;;;;22.30;51.66;100166.69;4949132;28;20077;-66
2023/06/18 06:39:41;;;;;;;8.73;7.82;;;;;;;22.55;51.75;100163.22;4940412;28;20039;-67
2023/06/18 06:42:09;;;;;;;9.23;8.25;;;;;;;22.85;50.65;100163.84;4928609;28;20047;-66
2023/06/18 06:44:36;;;;;;;9.02;7.35;;;;;;;23.11;48.01;100170.13;4949163;28;20062;-67
2023/06/18 06:47:03;;;;;;;9.50;8.25;;;;;;;23.31;49.16;100163.50;4929218;28;20071;-67
2023/06/18 06:49:33;;;;;;;8.52;7.72;;;;;;;23.58;48.30;100167.09;4945185;28;20043;-66
2023/06/18 06:51:59;;;;;;;9.48;7.63;;;;;;;23.77;48.47;100175.78;4942648;28;20054;-67
2023/06/18 06:54:26;;;;;;;9.25;7.80;;;;;;;23.97;45.71;100170.97;4947106;28;20078;-67
2023/06/18 06:56:54;;;;;;;9.50;7.18;;;;;;;24.02;46.07;100170.47;4947265;28;20043;-66
2023/06/18 06:59:22;;;;;;;9.23;7.18;;;;;;;24.10;46.40;100170.50;4943427;28;20047;-67
2023/06/18 07:01:49;;;;;;;8.23;7.43;;;;;;;24.21;45.67;100174.78;4948320;28;20126;-67
2023/06/18 07:04:16;;;;;;;7.95;7.18;;;;;;;24.42;45.81;100177.88;4931648;29;20047;-66
2023/06/18 07:06:43;;;;;;;8.43;7.00;;;;;;;24.45;44.74;100167.56;4948919;28;20135;-67
2023/06/18 07:09:09;;;;;;;9.15;7.85;;;;;;;24.58;44.48;100172.50;4924640;29;20731;-67
2023/06/18 07:11:37;;;;;;;9.95;7.40;;;;;;;24.47;44.31;100165.56;4948127;28;20081;-68
2023/06/18 07:14:04;;;;;;;13.20;7.60;;;;;;;24.36;46.23;100167.75;4950112;28;20070;-66
2023/06/18 07:16:31;;;;;;;8.68;7.72;;;;;;;24.36;47.06;100162.31;4944272;28;20049;-67
2023/06/18 07:18:59;;;;;;;9.35;7.88;;;;;;;24.33;47.12;100163.50;4942176;28;20073;-67
2023/06/18 07:21:25;;;;;;;12.18;8.35;;;;;;;24.47;47.42;100165.56;4930370;29;20410;-67
2023/06/18 07:23:54;;;;;;;8.75;7.75;;;;;;;24.51;48.40;100159.81;4931168;28;20071;-67
2023/06/18 07:26:21;;;;;;;11.18;7.78;;;;;;;24.82;46.98;100168.97;4935065;28;20043;-68
2023/06/18 07:28:48;;;;;;;8.63;7.43;;;;;;;24.97;47.33;100161.03;4942476;28;20150;-68
2023/06/18 07:31:14;;;;;;;8.63;7.72;;;;;;;25.24;47.15;100167.94;4930209;29;20073;-66
2023/06/18 07:33:42;;;;;;;9.77;8.07;;;;;;;25.44;45.53;100153.84;4945101;28;20051;-67
2023/06/18 07:36:08;;;;;;;10.70;7.40;;;;;;;25.36;46.73;100155.72;4942995;28;20055;-66
2023/06/18 07:38:36;;;;;;;10.10;6.93;;;;;;;25.35;46.43;100157.59;4945029;28;20075;-68
2023/06/18 07:41:03;;;;;;;8.07;7.28;;;;;;;25.35;44.93;100160.28;4946627;28;20489;-65
2023/06/18 07:43:31;;;;;;;8.85;6.57;;;;;;;25.51;47.34;100164.81;4929098;29;20510;-66
2023/06/18 07:45:58;;;;;;;9.05;7.72;;;;;;;25.55;45.88;100158.03;4925990;28;20146;-67
2023/06/18 07:48:25;;;;;;;8.65;7.70;;;;;;;25.74;44.94;100170.41;4924430;28;20047;-68
2023/06/18 07:50:52;;;;;;;11.32;7.45;;;;;;;25.83;43.48;100164.75;4942926;28;20170;-67
2023/06/18 07:53:19;;;;;;;8.15;7.32;;;;;;;25.78;43.10;100167.16;4946626;28;20142;-66
2023/06/18 07:55:46;;;;;;;8.27;7.47;;;;;;;25.96;44.90;100150.66;4929149;28;20047;-68
2023/06/18 07:58:13;;;;;;;9.65;7.32;;;;;;;26.24;43.30;100159.13;4938631;28;20047;-66
2023/06/18 08:00:40;;;;;;;9.70;7.57;;;;;;;26.32;43.27;100161.81;4921193;28;20156;-67
2023/06/18 08:03:06;;;;;;;9.68;7.53;;;;;;;26.27;43.35;100147.94;4946197;28;20876;-66
2023/06/18 08:05:36;;;;;;;9.10;8.23;;;;;;;25.99;43.65;100136.69;4928948;29;20043;-66
2023/06/18 08:08:02;;;;;;;9.75;7.32;;;;;;;25.76;43.81;100141.25;4928216;28;20098;-67
2023/06/18 08:10:30;;;;;;;10.38;6.88;;;;;;;25.92;43.92;100146.59;4931795;28;20129;-67
2023/06/18 08:13:00;;;;;;;9.82;8.05;;;;;;;26.27;43.21;100147.09;4943276;28;20039;-68
2023/06/18 08:15:27;;;;;;;8.63;6.93;;;;;;;26.73;41.98;100139.81;4944151;28;20047;-68
2023/06/18 08:17:54;;;;;;;10.85;7.20;;;;;;;27.02;38.75;100141.81;4924891;28;21327;-66
2023/06/18 08:20:21;;;;;;;9.35;7.70;;;;;;;27.16;37.90;100135.56;4939064;28;20051;-66
2023/06/18 08:22:50;;;;;;;8.80;7.60;;;;;;;27.28;37.53;100128.63;4939965;28;20062;-67
2023/06/18 08:25:17;;;;;;;8.25;7.13;;;;;;;27.44;37.20;100136.59;4942525;28;20604;-66
2023/06/18 08:27:43;;;;;;;8.35;7.43;;;;;;;27.73;36.60;100127.63;4927792;29;20045;-66
2023/06/18 08:30:11;;;;;;;10.05;7.07;;;;;;;28.01;34.86;100130.50;4924830;28;20406;-68
2023/06/18 08:32:40;;;;;;;7.97;6.80;;;;;;;28.17;35.16;100132.16;4925380;29;20062;-66
2023/06/18 08:35:07;;;;;;;9.25;7.22;;;;;;;28.11;35.36;100128.31;4927715;28;20134;-66
2023/06/18 08:37:35;;;;;;;8.65;7.10;;;;;;;28.10;36.25;100133.94;4943593;28;20051;-67
2023/06/18 08:40:03;;;;;;;6.88;6.28;;;;;;;28.27;34.95;100128.09;4938368;28;20433;-67
2023/06/18 08:42:31;;;;;;;7.50;6.80;;;;;;;28.21;34.65;100125.28;4936558;28;20552;-66
2023/06/18 08:45:01;;;;;;;10.52;6.82;;;;;;;28.24;34.22;100120.31;4943353;28;20520;-68
2023/06/18 08:47:29;;;;;;;7.72;6.93;;;;;;;28.32;34.87;100123.97;4947936;28;20052;-70
2023/06/18 08:49:59;;;;;;;11.40;7.07;;;;;;;28.44;34.91;100128.69;4942232;28;20138;-70
2023/06/18 08:52:27;;;;;;;;;;;;;;;28.41;35.23;100122.78;4951474;28;20047;-70
2023/06/18 08:55:02;;;;;;;9.15;7.10;;;;;;;28.38;34.90;100115.84;4950714;28;19922;-70
2023/06/18 08:57:32;;;;;;;7.50;6.70;;;;;;;28.28;35.24;100120.78;4931371;29;20043;-72
2023/06/18 08:59:59;;;;;;;8.48;7.40;;;;;;;28.29;35.07;100117.03;4947618;28;20548;-70
2023/06/18 09:02:27;;;;;;;9.43;6.95;;;;;;;28.35;34.37;100115.38;4938071;28;20520;-70
2023/06/18 09:04:55;;;;;;;8.88;7.20;;;;;;;28.58;34.55;100119.63;4951709;28;20061;-72
2023/06/18 09:07:29;;;;;;;9.38;7.57;;;;;;;28.54;34.84;100112.88;4935680;29;20051;-70
2023/06/18 09:09:58;;;;;;;7.72;6.93;;;;;;;28.63;34.33;100106.25;4925689;28;20111;-70
2023/06/18 09:12:25;;;;;;;7.90;7.07;;;;;;;28.83;33.60;100101.00;4948185;28;20106;-70
2023/06/18 09:14:51;;;;;;;8.82;7.72;;;;;;;29.06;32.85;100108.09;4931399;29;20058;-70
2023/06/18 09:17:19;;;;;;;9.30;7.60;;;;;;;28.25;32.86;100110.25;4933791;29;20047;-71
2023/06/18 09:19:46;;;;;;;7.90;6.80;;;;;;;28.20;32.99;100113.56;4941821;28;20524;-71
2023/06/18 09:22:15;;;;;;;9.23;7.45;;;;;;;28.08;33.65;100093.28;4941892;28;20747;-70
2023/06/18 09:24:42;;;;;;;8.65;7.70;;;;;;;28.06;33.29;100095.38;4938417;28;20047;-70
2023/06/18 09:27:11;;;;;;;9.13;7.13;;;;;;;28.02;32.92;100104.13;4952545;28;20054;-72
2023/06/18 09:29:40;;;;;;;9.38;7.22;;;;;;;28.05;33.88;100101.84;4940905;29;20039;-72
2023/06/18 09:32:10;;;;;;;8.52;7.63;;;;;;;28.15;34.12;100093.38;4935601;28;20099;-72
2023/06/18 09:34:38;;;;;;;7.80;7.00;;;;;;;28.16;33.45;100100.50;4935776;29;20513;-70
2023/06/18 09:37:08;;;;;;;9.02;7.32;;;;;;;28.06;34.35;100102.69;4945325;28;20050;-69
2023/06/18 09:39:38;;;;;;;7.60;6.80;;;;;;;27.82;33.52;100098.44;4930683;28;20095;-70
2023/06/18 09:42:11;;;;;;;9.32;7.63;;;;;;;27.57;34.23;100093.28;4946989;28;20568;-71
2023/06/18 09:44:38;;;;;;;8.10;7.32;;;;;;;27.44;34.08;100098.53;4929225;29;20095;-70
2023/06/18 09:47:13;;;;;;;8.13;7.30;;;;;;;27.57;33.84;100087.84;4931117;29;20619;-69
2023/06/18 09:49:42;;;;;;;11.00;7.78;;;;;;;27.73;34.53;100089.53;4940286;28;20095;-71
2023/06/18 09:52:10;;;;;;;9.00;7.28;;;;;;;27.85;34.13;100084.47;4946411;28;20070;-70
2023/06/18 09:54:41;;;;;;;8.40;7.15;;;;;;;27.88;33.79;100086.78;4925497;29;20647;-71
2023/06/18 09:57:11;;;;;;;8.43;7.63;;;;;;;27.75;33.72;100084.75;4927237;28;20054;-70
2023/06/18 09:59:38;;;;;;;;;;;;;;;27.74;33.47;100080.31;4942195;28;20138;-71
2023/06/18 10:02:06;;;;;;;8.55;7.40;;;;;;;27.92;33.65;100077.19;4933805;28;19926;-70
2023/06/18 10:04:34;;;;;;;8.38;7.57;;;;;;;28.14;32.71;100087.09;4943991;28;20043;-71
2023/06/18 10:07:05;;;;;;;8.30;7.43;;;;;;;28.36;31.34;100087.13;4947284;28;20071;-70
2023/06/18 10:09:35;;;;;;;8.80;6.60;;;;;;;28.48;30.57;100083.69;4927323;29;20224;-70
2023/06/18 10:12:06;;;;;;;7.95;7.15;;;;;;;28.52;31.09;100082.25;4928356;29;20524;-69
2023/06/18 10:14:33;;;;;;;;;;;;;;;28.55;31.27;100072.84;4929248;29;20181;-69
2023/06/18 10:17:07;;;;;;;9.88;7.78;;;;;;;28.55;32.01;100072.84;4947775;28;19978;-73
2023/06/18 10:19:47;;;;;;;8.85;7.38;;;;;;;28.72;31.92;100076.13;4927362;29;20111;-72
2023/06/18 10:22:16;;;;;;;9.80;7.60;;;;;;;28.86;31.02;100069.78;4950046;28;20058;-73
2023/06/18 10:25:00;;;;;;;7.90;7.10;;;;;;;28.76;30.45;100075.56;4951372;29;20078;-72
2023/06/18 10:27:29;;;;;;;9.15;7.22;;;;;;;28.53;31.19;100069.47;4946650;28;20099;-69
2023/06/18 10:29:59;;;;;;;9.15;7.93;;;;;;;28.46;32.26;100066.72;4943632;28;20043;-71
2023/06/18 10:32:30;;;;;;;8.63;7.03;;;;;;;28.43;31.16;100064.38;4948713;29;20047;-69
2023/06/18 10:35:00;;;;;;;8.27;7.55;;;;;;;28.70;31.44;100070.88;4932563;29;20050;-70
2023/06/18 10:37:31;;;;;;;7.50;6.75;;;;;;;29.05;30.70;100069.09;4928913;29;20098;-71
2023/06/18 10:39:59;;;;;;;8.65;7.03;;;;;;;29.34;28.56;100065.28;4945048;28;20066;-72
2023/06/18 10:42:31;;;;;;;10.60;7.35;;;;;;;29.52;28.78;100062.88;4924570;29;20088;-69
2023/06/18 10:45:09;;;;;;;7.65;6.53;;;;;;;29.64;27.86;100052.22;4929344;29;20039;-70
2023/06/18 10:47:39;;;;;;;7.88;7.07;;;;;;;29.70;28.10;100050.59;4950426;28;20420;-70
2023/06/18 10:50:06;;;;;;;9.90;6.93;;;;;;;29.79;28.76;100058.38;4943261;28;20142;-70
2023/06/18 10:52:49;;;;;;;7.05;6.45;;;;;;;29.78;28.78;100048.50;4931897;28;20134;-71
2023/06/18 10:55:18;;;;;;;7.53;6.80;;;;;;;29.94;27.67;100039.94;4952534;28;20138;-70
2023/06/18 10:58:04;;;;;;;8.48;7.00;;;;;;;30.06;27.78;100034.78;4953510;28;20039;-70
2023/06/18 11:00:40;;;;;;;7.82;7.03;;;;;;;30.10;27.39;100033.28;4946882;28;20130;-71
2023/06/18 11:03:15;;;;;;;8.15;7.35;;;;;;;30.19;28.14;100032.06;4949257;28;20110;-70
2023/06/18 11:05:48;;;;;;;7.65;6.95;;;;;;;30.17;27.02;100025.97;4932436;29;20074;-69
2023/06/18 11:08:17;;;;;;;8.95;7.10;;;;;;;30.00;27.63;100020.06;4928632;29;20319;-70
2023/06/18 11:10:48;;;;;;;7.50;6.70;;;;;;;29.96;28.09;100018.75;4928786;28;20058;-72
2023/06/18 11:13:17;;;;;;;7.63;6.93;;;;;;;30.12;27.55;100014.81;4948235;28;20097;-71
2023/06/18 11:16:21;;;;;;;7.35;6.65;;;;;;;30.26;27.23;100018.41;4951106;28;20043;-70
2023/06/18 11:18:53;;;;;;;8.65;6.45;;;;;;;30.37;26.49;100011.50;4865897;29;20064;-70
2023/06/18 11:21:21;;;;;;;9.48;7.13;;;;;;;30.51;26.71;100014.00;4931812;28;20053;-70
2023/06/18 11:23:48;;;;;;;9.45;6.28;;;;;;;30.54;26.43;100010.88;4949258;28;20381;-70
2023/06/18 11:26:18;;;;;;;7.00;6.32;;;;;;;30.55;26.49;100011.72;4947099;28;20047;-69
2023/06/18 11:28:46;;;;;;;7.68;6.97;;;;;;;30.44;26.34;100009.59;4932793;29;20043;-70